Time;durP1;ratioP1;P1;durP2;ratioP2;P2;SDS_P1;SDS_P2;PMS_P1;PMS_P2;Temp;Humidity;BMP_temperature;BMP_pressure;BME280_temperature;BME280_humidity;BME280_pressure;Samples;Min_cycle;Max_cycle;Signal;HPM_P1;HPM_P2
2022/08/10 00:00:20;;;;;;;2.58;1.60;;;19.40;69.00;;;;;;4939005;28;20050;-67
2022/08/10 00:02:51;;;;;;;3.85;1.95;;;19.40;68.40;;;;;;4937536;29;20031;-67
2022/08/10 00:05:18;;;;;;;2.80;1.70;;;19.30;68.50;;;;;;4942643;28;20052;-67
2022/08/10 00:07:44;;;;;;;1.92;1.58;;;19.30;68.70;;;;;;4952197;28;20759;-67
2022/08/10 00:10:13;;;;;;;4.15;2.00;;;19.20;68.80;;;;;;4943587;28;20039;-67
2022/08/10 00:12:39;;;;;;;5.20;1.83;;;19.20;69.00;;;;;;4942801;28;20773;-67
2022/08/10 00:15:06;;;;;;;3.05;1.80;;;19.10;69.00;;;;;;4940748;28;20038;-67
2022/08/10 00:17:32;;;;;;;2.53;1.65;;;19.00;69.10;;;;;;4939423;29;20210;-67
2022/08/10 00:19:57;;;;;;;2.78;1.65;;;19.00;69.90;;;;;;4938490;28;20118;-67
2022/08/10 00:22:23;;;;;;;3.67;2.10;;;19.00;69.40;;;;;;4937880;29;20055;-67
2022/08/10 00:24:49;;;;;;;2.50;1.75;;;18.90;69.70;;;;;;4936535;28;20754;-67
2022/08/10 00:27:15;;;;;;;3.47;1.90;;;18.90;70.00;;;;;;4938669;29;20611;-67
2022/08/10 00:29:40;;;;;;;3.72;2.22;;;18.80;70.20;;;;;;4945264;28;20027;-67
2022/08/10 00:32:06;;;;;;;3.75;2.20;;;18.70;70.20;;;;;;4944871;28;20130;-67
2022/08/10 00:34:33;;;;;;;5.20;2.03;;;18.70;70.30;;;;;;4944873;28;20035;-67
2022/08/10 00:36:59;;;;;;;5.57;2.10;;;18.60;70.40;;;;;;4945408;28;20042;-67
2022/08/10 00:39:27;;;;;;;3.83;2.30;;;18.60;70.50;;;;;;4943085;28;20062;-67
2022/08/10 00:41:54;;;;;;;2.13;1.73;;;18.50;70.60;;;;;;4940429;29;20142;-67
2022/08/10 00:44:20;;;;;;;5.40;2.22;;;18.50;70.80;;;;;;4939618;28;20040;-67
2022/08/10 00:46:45;;;;;;;3.78;1.88;;;18.40;70.90;;;;;;4947818;28;20102;-67
2022/08/10 00:49:12;;;;;;;2.10;1.77;;;18.40;71.20;;;;;;4945738;29;20042;-67
2022/08/10 00:51:39;;;;;;;4.10;1.92;;;18.30;71.50;;;;;;4945574;29;20106;-67
2022/08/10 00:54:05;;;;;;;4.90;1.98;;;18.20;71.70;;;;;;4942865;28;20058;-67
2022/08/10 00:56:31;;;;;;;2.42;1.70;;;18.10;72.00;;;;;;4943391;28;20019;-67
2022/08/10 00:58:57;;;;;;;5.85;2.35;;;18.10;72.40;;;;;;4940610;28;20066;-67
2022/08/10 01:01:23;;;;;;;2.08;1.90;;;18.00;72.60;;;;;;4940497;29;20147;-67
2022/08/10 01:03:49;;;;;;;5.38;2.30;;;18.10;72.80;;;;;;4940293;28;20180;-67
2022/08/10 01:06:30;;;;;;;4.13;1.83;;;18.00;73.20;;;;;;4946819;28;20162;-67
2022/08/10 01:09:40;;;;;;;2.72;1.80;;;17.90;73.50;;;;;;4943368;29;20151;-67
2022/08/10 01:12:35;;;;;;;3.53;1.70;;;17.90;73.80;;;;;;4922066;29;20058;-67
2022/08/10 01:15:25;;;;;;;2.70;2.00;;;17.80;74.20;;;;;;4901332;29;20043;-67
2022/08/10 01:17:56;;;;;;;6.30;1.90;;;17.80;74.40;;;;;;4935296;29;20420;-67
2022/08/10 01:21:01;;;;;;;2.08;1.80;;;17.80;74.50;;;;;;4940026;29;20121;-67
2022/08/10 01:23:36;;;;;;;2.97;1.95;;;17.80;74.90;;;;;;4916918;28;20042;-67
2022/08/10 01:26:16;;;;;;;4.97;1.90;;;17.80;75.10;;;;;;4943314;29;20031;-67
2022/08/10 01:29:13;;;;;;;3.55;2.10;;;17.70;75.20;;;;;;4943966;29;20830;-67
2022/08/10 01:31:48;;;;;;;3.10;2.17;;;17.70;75.30;;;;;;4942737;29;20077;-67
2022/08/10 01:34:19;;;;;;;3.17;1.70;;;17.60;75.80;;;;;;4940712;28;20043;-66
2022/08/10 01:36:50;;;;;;;2.83;1.80;;;17.60;76.20;;;;;;4941142;29;20034;-67
2022/08/10 01:39:29;;;;;;;2.95;1.98;;;17.60;76.50;;;;;;4938847;29;20059;-67
2022/08/10 01:41:57;;;;;;;3.17;1.95;;;17.60;76.60;;;;;;4939444;28;20044;-67
2022/08/10 01:44:39;;;;;;;2.38;1.90;;;17.60;76.80;;;;;;4945792;28;20108;-67
2022/08/10 01:50:01;;;;;;;3.63;2.00;;;17.50;77.20;;;;;;4940354;29;20062;-67
2022/08/10 01:52:30;;;;;;;3.97;2.25;;;17.50;77.20;;;;;;4940609;29;20042;-67
2022/08/10 01:54:57;;;;;;;2.47;1.90;;;17.50;77.20;;;;;;4939127;28;20039;-67
2022/08/10 01:57:26;;;;;;;4.10;2.15;;;17.50;77.40;;;;;;4940593;29;20039;-67
2022/08/10 01:59:55;;;;;;;3.47;2.38;;;17.40;77.20;;;;;;4938317;29;20043;-67
2022/08/10 02:02:22;;;;;;;2.70;2.33;;;17.40;77.40;;;;;;4945882;29;20039;-67
2022/08/10 02:04:50;;;;;;;4.28;2.30;;;17.40;77.30;;;;;;4946266;28;20121;-67
2022/08/10 02:07:20;;;;;;;3.05;2.00;;;17.30;77.30;;;;;;4944015;29;20050;-67
2022/08/10 02:09:53;;;;;;;4.00;2.40;;;17.30;77.50;;;;;;4946286;29;20110;-67
2022/08/10 02:12:23;;;;;;;3.33;2.22;;;17.20;77.50;;;;;;4941425;29;20035;-67
2022/08/10 02:14:59;;;;;;;4.25;2.08;;;17.20;77.50;;;;;;4940970;28;20031;-67
2022/08/10 02:17:30;;;;;;;3.13;2.00;;;17.10;77.70;;;;;;4940221;29;20042;-66
2022/08/10 02:20:00;;;;;;;2.40;1.83;;;17.10;78.00;;;;;;4940029;28;20064;-67
2022/08/10 02:22:28;;;;;;;3.42;2.08;;;17.00;78.40;;;;;;4945993;28;20284;-67
2022/08/10 02:24:56;;;;;;;3.53;1.92;;;17.00;78.60;;;;;;4942349;28;20065;-67
2022/08/10 02:27:23;;;;;;;3.40;2.20;;;16.90;78.80;;;;;;4942965;29;20078;-67
2022/08/10 02:29:51;;;;;;;2.40;2.20;;;16.90;78.80;;;;;;4945177;28;20031;-67
2022/08/10 02:32:19;;;;;;;2.72;1.90;;;16.80;79.00;;;;;;4939573;29;20047;-67
2022/08/10 02:34:46;;;;;;;4.97;2.58;;;16.80;79.30;;;;;;4940446;28;20083;-67
2022/08/10 02:37:13;;;;;;;2.50;2.30;;;16.70;79.50;;;;;;4937231;29;20036;-67
2022/08/10 02:39:39;;;;;;;3.38;2.40;;;16.70;79.70;;;;;;4943172;29;20031;-67
2022/08/10 02:42:12;;;;;;;3.97;2.28;;;16.70;80.00;;;;;;4944785;28;20019;-67
2022/08/10 02:45:00;;;;;;;3.88;2.22;;;16.60;80.20;;;;;;4946848;28;20055;-67
2022/08/10 02:47:31;;;;;;;2.65;2.28;;;16.60;80.40;;;;;;4943032;29;20054;-69
2022/08/10 02:50:09;;;;;;;4.28;2.25;;;16.60;80.60;;;;;;4940765;29;20043;-68
2022/08/10 02:52:43;;;;;;;3.83;2.28;;;16.50;80.50;;;;;;4939681;28;20039;-69
2022/08/10 02:55:20;;;;;;;2.65;2.35;;;16.50;80.50;;;;;;4937006;28;20035;-69
2022/08/10 02:57:51;;;;;;;5.47;2.20;;;16.50;80.80;;;;;;4942943;28;20046;-69
2022/08/10 03:00:17;;;;;;;4.75;2.78;;;16.50;81.20;;;;;;4944817;28;20153;-69
2022/08/10 03:02:46;;;;;;;3.15;2.38;;;16.40;81.20;;;;;;4945749;29;20039;-69
2022/08/10 03:05:14;;;;;;;3.38;2.28;;;16.40;81.50;;;;;;4942013;28;20138;-69
2022/08/10 03:07:59;;;;;;;4.68;2.55;;;16.40;81.70;;;;;;4942675;29;20435;-69
2022/08/10 03:10:29;;;;;;;3.97;2.70;;;16.30;81.90;;;;;;4940504;29;20110;-69
2022/08/10 03:13:00;;;;;;;4.90;2.67;;;16.30;82.20;;;;;;4938318;28;20070;-69
2022/08/10 03:15:30;;;;;;;5.40;2.58;;;16.20;82.40;;;;;;4938539;28;20036;-69
2022/08/10 03:17:57;;;;;;;5.65;3.08;;;16.30;82.90;;;;;;4946077;29;20102;-69
2022/08/10 03:20:27;;;;;;;6.95;3.22;;;16.20;83.10;;;;;;4944187;28;20031;-69
2022/08/10 03:22:55;;;;;;;3.50;2.75;;;16.20;83.60;;;;;;4941640;29;20416;-69
2022/08/10 03:25:25;;;;;;;5.53;3.03;;;16.20;83.80;;;;;;4941342;28;20862;-69
2022/08/10 03:27:51;;;;;;;5.65;3.10;;;16.10;84.10;;;;;;4944480;29;20101;-69
2022/08/10 03:30:17;;;;;;;5.28;2.42;;;16.10;84.30;;;;;;4938737;29;20062;-69
2022/08/10 03:32:44;;;;;;;6.57;3.00;;;16.10;84.90;;;;;;4938580;28;20035;-69
2022/08/10 03:35:11;;;;;;;3.97;2.78;;;16.10;84.30;;;;;;4945242;28;20035;-69
2022/08/10 03:37:37;;;;;;;5.50;3.38;;;16.10;84.60;;;;;;4946466;29;20051;-69
2022/08/10 03:40:05;;;;;;;4.15;2.65;;;16.10;84.60;;;;;;4943244;28;20642;-69
2022/08/10 03:42:32;;;;;;;3.78;2.47;;;16.10;84.60;;;;;;4942769;29;20039;-69
2022/08/10 03:45:00;;;;;;;4.65;2.88;;;16.10;84.60;;;;;;4940954;28;20035;-69
2022/08/10 03:47:29;;;;;;;5.50;2.60;;;16.10;84.50;;;;;;4943354;29;20542;-69
2022/08/10 03:49:57;;;;;;;5.35;2.90;;;16.10;84.40;;;;;;4938503;28;20126;-69
2022/08/10 03:52:23;;;;;;;5.32;2.65;;;16.20;84.70;;;;;;4938099;29;20047;-69
2022/08/10 03:54:52;;;;;;;5.13;2.83;;;16.20;84.70;;;;;;4942335;28;20053;-69
2022/08/10 03:57:20;;;;;;;4.35;2.60;;;16.20;84.70;;;;;;4944230;28;20040;-69
2022/08/10 03:59:46;;;;;;;4.05;2.80;;;16.20;84.70;;;;;;4943887;29;20053;-69
2022/08/10 04:02:13;;;;;;;4.68;2.88;;;16.10;84.60;;;;;;4940877;29;20036;-69
2022/08/10 04:04:38;;;;;;;3.78;2.58;;;16.20;84.70;;;;;;4943641;28;20023;-69
2022/08/10 04:07:05;;;;;;;3.85;2.60;;;16.20;84.60;;;;;;4941958;28;20628;-69
2022/08/10 04:09:33;;;;;;;3.38;2.78;;;16.20;84.50;;;;;;4943387;28;20035;-69
2022/08/10 04:11:59;;;;;;;4.82;2.88;;;16.20;84.40;;;;;;4939431;28;20429;-69
2022/08/10 04:14:24;;;;;;;3.70;2.50;;;16.20;84.60;;;;;;4948668;28;20064;-69
2022/08/10 04:16:50;;;;;;;3.38;2.58;;;16.20;84.50;;;;;;4949392;28;20524;-69
2022/08/10 04:19:17;;;;;;;4.40;2.85;;;16.20;84.30;;;;;;4945791;29;20035;-69
2022/08/10 04:21:55;;;;;;;3.58;3.10;;;16.20;84.50;;;;;;4945996;29;20031;-69
2022/08/10 04:24:25;;;;;;;6.28;2.70;;;16.20;84.50;;;;;;4943633;28;20044;-69
2022/08/10 04:26:51;;;;;;;4.30;2.90;;;16.20;84.60;;;;;;4942677;28;20062;-69
2022/08/10 04:29:16;;;;;;;5.15;3.35;;;16.20;84.50;;;;;;4940643;29;20061;-69
2022/08/10 04:31:43;;;;;;;4.55;2.80;;;16.20;84.40;;;;;;4946718;28;20102;-71
2022/08/10 04:34:10;;;;;;;4.25;3.05;;;16.20;84.40;;;;;;4947831;28;20426;-69
2022/08/10 04:36:38;;;;;;;5.32;2.90;;;16.10;84.30;;;;;;4947749;28;20034;-69
2022/08/10 04:39:04;;;;;;;5.43;3.33;;;16.10;84.30;;;;;;4945444;28;20411;-69
2022/08/10 04:41:31;;;;;;;3.58;2.85;;;16.10;84.30;;;;;;4945433;29;20063;-69
2022/08/10 04:43:57;;;;;;;4.50;3.15;;;16.10;84.50;;;;;;4942862;28;20067;-69
2022/08/10 04:46:22;;;;;;;5.05;2.90;;;16.10;84.60;;;;;;4942193;29;20078;-69
2022/08/10 04:48:48;;;;;;;4.90;3.50;;;16.10;84.60;;;;;;4940855;28;20046;-69
2022/08/10 04:51:15;;;;;;;6.70;3.65;;;16.10;84.70;;;;;;4942573;29;20075;-69
2022/08/10 04:53:41;;;;;;;6.43;3.45;;;16.10;84.90;;;;;;4948891;28;20443;-69
2022/08/10 04:56:07;;;;;;;6.95;3.30;;;16.20;84.90;;;;;;4953359;28;20031;-69
2022/08/10 04:58:36;;;;;;;7.70;3.92;;;16.20;85.00;;;;;;4947487;28;20031;-69
2022/08/10 05:01:02;;;;;;;9.77;4.38;;;16.10;85.20;;;;;;4944992;28;20603;-68
2022/08/10 05:03:28;;;;;;;7.90;3.53;;;16.20;85.30;;;;;;4941904;28;20046;-69
2022/08/10 05:05:54;;;;;;;6.57;3.80;;;16.20;85.50;;;;;;4939937;28;20039;-69
2022/08/10 05:08:19;;;;;;;6.50;3.78;;;16.20;85.70;;;;;;4939369;29;20040;-69
2022/08/10 05:10:45;;;;;;;5.45;3.47;;;16.30;86.00;;;;;;4947876;29;20082;-69
2022/08/10 05:13:11;;;;;;;4.95;3.63;;;16.30;86.10;;;;;;4945478;29;20875;-69
2022/08/10 05:15:37;;;;;;;7.55;3.80;;;16.30;86.30;;;;;;4944747;28;20837;-69
2022/08/10 05:18:02;;;;;;;5.60;3.50;;;16.40;86.80;;;;;;4944184;28;20038;-69
2022/08/10 05:20:28;;;;;;;5.00;3.30;;;16.40;86.00;;;;;;4944070;29;20063;-69
2022/08/10 05:22:54;;;;;;;5.43;3.60;;;16.40;86.20;;;;;;4941428;28;20551;-69
2022/08/10 05:25:20;;;;;;;5.72;3.55;;;16.50;86.20;;;;;;4940578;28;20039;-69
2022/08/10 05:27:47;;;;;;;6.65;4.00;;;16.60;86.30;;;;;;4944923;28;20514;-69
2022/08/10 05:30:18;;;;;;;7.00;3.70;;;16.60;86.40;;;;;;4947170;29;20050;-69
2022/08/10 05:32:44;;;;;;;7.28;3.50;;;16.70;86.10;;;;;;4946429;28;20046;-69
2022/08/10 05:35:11;;;;;;;4.97;3.58;;;16.80;86.10;;;;;;4944098;28;20812;-69
2022/08/10 05:37:37;;;;;;;5.45;3.00;;;16.80;86.20;;;;;;4944291;29;20248;-69
2022/08/10 05:40:05;;;;;;;6.70;3.80;;;16.90;86.20;;;;;;4941256;28;20038;-69
2022/08/10 05:42:31;;;;;;;4.57;4.10;;;17.00;86.30;;;;;;4942612;29;20043;-69
2022/08/10 05:44:57;;;;;;;7.05;3.70;;;17.20;85.90;;;;;;4942041;28;20095;-69
2022/08/10 05:47:23;;;;;;;5.80;3.90;;;17.20;85.60;;;;;;4943375;29;20116;-69
2022/08/10 05:49:50;;;;;;;5.28;3.47;;;17.30;85.60;;;;;;4945597;29;20437;-69
2022/08/10 05:52:16;;;;;;;6.38;3.80;;;17.40;85.50;;;;;;4944452;28;20047;-69
2022/08/10 05:54:43;;;;;;;4.90;3.47;;;17.70;85.70;;;;;;4945212;28;20652;-69
2022/08/10 05:57:10;;;;;;;4.53;3.90;;;17.90;85.10;;;;;;4944558;29;20039;-70
2022/08/10 05:59:43;;;;;;;5.38;3.65;;;18.10;83.60;;;;;;4945711;29;20059;-69
2022/08/10 06:02:12;;;;;;;4.75;3.30;;;18.20;82.60;;;;;;4938596;29;20027;-69
2022/08/10 06:04:43;;;;;;;7.15;3.60;;;18.20;82.40;;;;;;4940347;28;20411;-69
2022/08/10 06:07:12;;;;;;;5.57;3.72;;;18.30;82.40;;;;;;4945300;29;20550;-69
2022/08/10 06:09:40;;;;;;;6.43;4.00;;;18.40;81.90;;;;;;4946116;29;20138;-69
2022/08/10 06:12:07;;;;;;;7.50;4.10;;;18.40;82.00;;;;;;4943644;29;20693;-69
2022/08/10 06:17:20;;;;;;;7.72;4.20;;;18.60;81.70;;;;;;4941710;29;20061;-69
2022/08/10 06:19:46;;;;;;;10.70;3.70;;;18.60;81.50;;;;;;4941656;28;20054;-69
2022/08/10 06:22:13;;;;;;;5.65;3.33;;;18.70;81.30;;;;;;4937727;29;20496;-70
2022/08/10 06:24:41;;;;;;;4.68;3.55;;;18.80;81.10;;;;;;4940113;28;20027;-69
2022/08/10 06:27:07;;;;;;;8.85;3.28;;;18.90;81.00;;;;;;4945753;28;20316;-69
2022/08/10 06:29:35;;;;;;;6.70;3.88;;;19.00;80.90;;;;;;4946447;29;20106;-69
2022/08/10 06:32:03;;;;;;;5.20;3.58;;;19.20;80.40;;;;;;4942843;29;20078;-69
2022/08/10 06:34:37;;;;;;;6.68;3.60;;;19.20;79.80;;;;;;4943035;28;20559;-70
2022/08/10 06:37:05;;;;;;;4.85;3.60;;;19.40;79.60;;;;;;4940186;28;20027;-69
2022/08/10 06:39:32;;;;;;;12.63;4.07;;;19.40;79.20;;;;;;4940323;29;20031;-69
2022/08/10 06:42:07;;;;;;;6.93;3.70;;;19.50;78.70;;;;;;4937448;28;20047;-70
2022/08/10 06:44:40;;;;;;;5.68;3.55;;;19.60;78.30;;;;;;4936071;28;20052;-69
2022/08/10 06:47:08;;;;;;;6.55;3.30;;;19.70;78.60;;;;;;4944559;29;20719;-69
2022/08/10 06:49:36;;;;;;;4.72;3.35;;;19.80;78.10;;;;;;4944494;29;20754;-69
2022/08/10 06:52:03;;;;;;;8.07;3.83;;;19.90;77.50;;;;;;4942241;28;20121;-70
2022/08/10 06:54:31;;;;;;;9.05;3.70;;;20.00;76.80;;;;;;4942185;28;20082;-69
2022/08/10 06:56:57;;;;;;;10.48;3.45;;;20.10;76.60;;;;;;4939933;28;20218;-70
2022/08/10 06:59:28;;;;;;;10.88;3.70;;;20.30;75.60;;;;;;4939519;29;20027;-70
2022/08/10 07:02:20;;;;;;;6.55;3.28;;;20.30;75.30;;;;;;4943042;29;20061;-70
2022/08/10 07:04:59;;;;;;;10.15;3.58;;;20.40;75.20;;;;;;4944374;28;20035;-69
2022/08/10 07:07:28;;;;;;;8.05;3.55;;;20.60;74.00;;;;;;4944309;29;20040;-69
2022/08/10 07:09:56;;;;;;;5.28;2.80;;;20.70;72.80;;;;;;4941516;29;20122;-70
2022/08/10 07:12:24;;;;;;;4.88;3.10;;;20.70;72.80;;;;;;4940833;29;20043;-70
2022/08/10 07:14:52;;;;;;;3.80;3.40;;;20.90;72.90;;;;;;4940891;28;20035;-69
2022/08/10 07:17:26;;;;;;;5.30;3.08;;;21.20;71.10;;;;;;4938562;29;20040;-69
2022/08/10 07:19:55;;;;;;;4.05;2.60;;;21.30;70.70;;;;;;4937519;28;20150;-69
2022/08/10 07:22:28;;;;;;;5.05;3.00;;;21.30;70.40;;;;;;4944615;29;20042;-70
2022/08/10 07:24:56;;;;;;;8.00;3.40;;;21.40;70.00;;;;;;4940496;28;20059;-70
2022/08/10 07:27:24;;;;;;;6.32;2.92;;;21.50;69.50;;;;;;4944204;28;20587;-70
2022/08/10 07:29:52;;;;;;;4.57;2.88;;;21.60;69.20;;;;;;4943244;29;20023;-66
2022/08/10 07:32:20;;;;;;;6.97;3.28;;;21.60;68.80;;;;;;4939633;29;20074;-70
2022/08/10 07:34:49;;;;;;;3.58;2.78;;;21.70;68.40;;;;;;4940675;28;20058;-70
2022/08/10 07:37:16;;;;;;;3.75;2.85;;;21.80;67.50;;;;;;4937918;29;20054;-70
2022/08/10 07:39:47;;;;;;;4.45;2.50;;;21.90;67.80;;;;;;4943172;28;20046;-70
2022/08/10 07:42:14;;;;;;;6.20;2.75;;;22.00;67.10;;;;;;4952290;28;20043;-70
2022/08/10 07:44:42;;;;;;;6.22;2.50;;;22.20;66.80;;;;;;4951335;28;20039;-70
2022/08/10 07:47:12;;;;;;;5.47;2.45;;;22.30;65.50;;;;;;4948626;29;20034;-70
2022/08/10 07:49:41;;;;;;;4.72;2.42;;;22.30;65.40;;;;;;4948802;28;20376;-69
2022/08/10 07:52:09;;;;;;;2.47;2.10;;;22.50;65.10;;;;;;4945197;28;20090;-70
2022/08/10 07:54:41;;;;;;;6.78;2.25;;;22.60;65.10;;;;;;4949873;28;20027;-70
2022/08/10 07:57:17;;;;;;;4.00;2.25;;;22.70;64.40;;;;;;4942496;28;20095;-70
2022/08/10 07:59:49;;;;;;;2.97;2.20;;;22.80;64.30;;;;;;4948797;29;20030;-70
2022/08/10 08:02:36;;;;;;;9.00;2.25;;;23.00;63.00;;;;;;4951438;28;20039;-70
2022/08/10 08:05:04;;;;;;;;;;;23.20;61.80;;;;;;4948074;28;20038;-69
2022/08/10 08:07:31;;;;;;;3.70;2.00;;;23.30;62.30;;;;;;4949062;28;19919;-70
2022/08/10 08:09:58;;;;;;;2.08;1.73;;;23.30;61.20;;;;;;4946901;28;20031;-70
2022/08/10 08:12:25;;;;;;;4.18;1.90;;;23.40;60.40;;;;;;4948978;29;20043;-70
2022/08/10 08:14:52;;;;;;;2.50;1.80;;;23.40;58.30;;;;;;4944613;28;20074;-70
2022/08/10 08:17:20;;;;;;;4.13;1.70;;;23.50;59.00;;;;;;4943763;29;20083;-70
2022/08/10 08:19:49;;;;;;;3.22;1.80;;;23.60;59.30;;;;;;4952103;28;20035;-70
2022/08/10 08:22:17;;;;;;;3.13;1.70;;;23.70;58.50;;;;;;4950423;29;20059;-70
2022/08/10 08:24:43;;;;;;;2.10;1.80;;;23.70;58.60;;;;;;4949600;28;20155;-70
2022/08/10 08:27:13;;;;;;;3.90;1.70;;;23.80;58.70;;;;;;4948161;28;20020;-70
2022/08/10 08:29:42;;;;;;;3.95;1.70;;;23.90;57.90;;;;;;4947749;29;20043;-70
2022/08/10 08:32:10;;;;;;;4.00;1.65;;;24.10;56.90;;;;;;4947691;28;20853;-70
2022/08/10 08:34:38;;;;;;;4.38;1.67;;;24.20;55.70;;;;;;4944790;28;20051;-70
2022/08/10 08:37:05;;;;;;;2.42;1.38;;;24.30;55.00;;;;;;4945063;28;20035;-69
2022/08/10 08:39:32;;;;;;;3.80;1.80;;;24.30;53.10;;;;;;4947589;29;20736;-70
2022/08/10 08:42:13;;;;;;;3.58;1.50;;;24.30;53.80;;;;;;4949818;28;20082;-70
2022/08/10 08:45:05;;;;;;;1.42;1.30;;;24.40;54.10;;;;;;4947563;28;20524;-70
2022/08/10 08:47:53;;;;;;;2.15;1.50;;;24.50;51.50;;;;;;4946081;29;20027;-70
2022/08/10 08:50:41;;;;;;;2.78;1.40;;;24.50;51.70;;;;;;4944358;28;20116;-70
2022/08/10 08:53:25;;;;;;;4.22;1.73;;;24.60;52.70;;;;;;4938844;29;20058;-70
2022/08/10 08:56:03;;;;;;;2.42;0.98;;;24.60;50.50;;;;;;4940349;29;20039;-70
2022/08/10 08:58:43;;;;;;;3.17;1.30;;;24.70;49.70;;;;;;4962791;28;20094;-70
2022/08/10 09:01:26;;;;;;;1.25;1.10;;;24.70;49.60;;;;;;4945736;28;20046;-70
2022/08/10 09:04:30;;;;;;;3.53;1.45;;;24.70;50.90;;;;;;4943620;28;20861;-70
2022/08/10 09:07:08;;;;;;;6.00;1.42;;;25.00;50.90;;;;;;4936516;29;20047;-70
2022/08/10 09:09:48;;;;;;;3.25;1.45;;;25.10;50.10;;;;;;4942824;29;20031;-70
2022/08/10 09:12:56;;;;;;;4.70;1.65;;;25.20;49.90;;;;;;4939613;29;20039;-70
2022/08/10 09:15:55;;;;;;;4.50;1.40;;;25.40;48.80;;;;;;4943372;28;20102;-70
2022/08/10 09:18:38;;;;;;;3.25;1.27;;;25.50;48.90;;;;;;4944918;29;20524;-69
2022/08/10 09:21:16;;;;;;;3.85;1.30;;;25.60;47.90;;;;;;4943807;29;20483;-69
2022/08/10 09:23:57;;;;;;;4.28;1.52;;;25.60;48.90;;;;;;4943761;28;20038;-70
2022/08/10 09:26:50;;;;;;;1.77;1.17;;;25.70;48.20;;;;;;4943012;29;20445;-69
2022/08/10 09:29:29;;;;;;;1.35;1.00;;;25.80;47.90;;;;;;4936665;28;20070;-70
2022/08/10 09:32:36;;;;;;;2.00;1.00;;;25.80;46.80;;;;;;4938509;28;20035;-70
2022/08/10 09:35:20;;;;;;;2.13;1.20;;;25.80;45.60;;;;;;4944448;28;20447;-70
2022/08/10 09:38:16;;;;;;;2.92;1.10;;;25.80;45.40;;;;;;4947066;28;20038;-69
2022/08/10 09:41:15;;;;;;;1.77;0.93;;;26.00;46.50;;;;;;4944642;29;20039;-70
2022/08/10 09:44:03;;;;;;;2.47;1.10;;;26.10;44.30;;;;;;4943607;28;20574;-70
2022/08/10 09:46:57;;;;;;;1.98;0.90;;;26.20;42.20;;;;;;4942364;29;20090;-70
2022/08/10 09:49:39;;;;;;;1.38;0.70;;;26.20;42.60;;;;;;4940822;29;20039;-70
2022/08/10 09:52:27;;;;;;;3.03;1.08;;;26.30;43.30;;;;;;4940582;29;20047;-70
2022/08/10 09:55:35;;;;;;;3.83;1.08;;;26.40;43.00;;;;;;4946076;28;20140;-70
2022/08/10 09:58:31;;;;;;;2.05;0.98;;;26.60;42.90;;;;;;4943152;29;20118;-70
2022/08/10 10:01:07;;;;;;;1.13;0.80;;;26.70;42.20;;;;;;4942521;29;20071;-70
2022/08/10 10:03:43;;;;;;;0.88;0.70;;;26.50;41.30;;;;;;4941534;28;20455;-66
2022/08/10 10:06:19;;;;;;;;;;;26.50;41.60;;;;;;4939764;28;20031;-66
2022/08/10 10:08:53;;;;;;;1.15;0.88;;;26.50;41.30;;;;;;4940658;29;19914;-70
2022/08/10 10:11:42;;;;;;;2.83;1.10;;;26.70;41.50;;;;;;4942162;29;20590;-70
2022/08/10 10:14:21;;;;;;;1.05;0.60;;;26.80;41.10;;;;;;4943505;28;20043;-70
2022/08/10 10:17:16;;;;;;;1.27;0.90;;;26.80;40.40;;;;;;4945304;29;20054;-70
2022/08/10 10:20:11;;;;;;;3.25;0.88;;;26.80;40.40;;;;;;4940281;28;20436;-70
2022/08/10 10:23:04;;;;;;;4.07;1.00;;;26.80;40.90;;;;;;4942092;29;20654;-70
2022/08/10 10:25:30;;;;;;;2.65;0.85;;;26.70;40.20;;;;;;4941403;28;20523;-70
2022/08/10 10:28:01;;;;;;;1.55;0.90;;;26.70;39.80;;;;;;4941469;29;20035;-70
2022/08/10 10:30:35;;;;;;;1.27;0.85;;;26.90;40.30;;;;;;4942952;29;20039;-70
2022/08/10 10:33:32;;;;;;;1.35;0.80;;;27.00;40.10;;;;;;4943030;29;20039;-70
2022/08/10 10:35:58;;;;;;;2.35;0.90;;;27.10;39.90;;;;;;4942472;29;20039;-70
2022/08/10 10:38:31;;;;;;;3.22;0.88;;;27.20;39.40;;;;;;4942899;29;20035;-70
2022/08/10 10:41:25;;;;;;;1.83;0.90;;;27.20;38.90;;;;;;4941335;28;20595;-69
2022/08/10 10:44:20;;;;;;;1.05;0.70;;;27.30;39.30;;;;;;4940551;28;20038;-69
2022/08/10 10:46:52;;;;;;;0.65;0.65;;;27.40;38.40;;;;;;4936512;29;20544;-70
2022/08/10 10:49:55;;;;;;;1.33;0.90;;;27.50;37.90;;;;;;4941545;29;20412;-70
2022/08/10 10:52:48;;;;;;;1.40;0.77;;;27.40;37.40;;;;;;4944650;29;20039;-70
2022/08/10 10:55:44;;;;;;;4.28;1.00;;;27.40;37.50;;;;;;4943030;28;20028;-70
2022/08/10 10:58:35;;;;;;;1.05;0.95;;;27.30;38.60;;;;;;4941932;29;20655;-70
2022/08/10 11:01:19;;;;;;;2.85;0.80;;;27.40;38.80;;;;;;4940689;29;20035;-70
2022/08/10 11:04:10;;;;;;;4.25;0.90;;;27.50;38.20;;;;;;4936570;28;20061;-70
2022/08/10 11:07:03;;;;;;;2.85;1.10;;;27.60;37.70;;;;;;4935574;29;20038;-70
2022/08/10 11:09:42;;;;;;;2.05;0.80;;;27.60;37.90;;;;;;4946117;29;20027;-70
2022/08/10 11:12:29;;;;;;;1.13;1.02;;;27.70;37.60;;;;;;4942633;29;20035;-70
2022/08/10 11:15:07;;;;;;;3.35;1.27;;;27.80;37.80;;;;;;4941103;28;20039;-70
2022/08/10 11:17:41;;;;;;;2.65;0.90;;;27.80;38.00;;;;;;4941253;29;20551;-70
2022/08/10 11:20:49;;;;;;;2.10;0.80;;;27.90;37.90;;;;;;4939119;29;20040;-70
2022/08/10 11:23:38;;;;;;;1.48;0.70;;;27.90;38.40;;;;;;4938177;29;20091;-70
2022/08/10 11:26:11;;;;;;;2.75;1.20;;;27.90;36.80;;;;;;4942308;28;20127;-70
2022/08/10 11:28:47;;;;;;;1.48;0.70;;;28.00;37.00;;;;;;4943037;29;20118;-70
2022/08/10 11:31:27;;;;;;;1.77;0.90;;;28.10;36.10;;;;;;4943519;28;20090;-70
2022/08/10 11:33:53;;;;;;;2.03;0.90;;;28.10;36.10;;;;;;4941132;28;20043;-70
2022/08/10 11:36:59;;;;;;;3.55;0.90;;;28.20;36.30;;;;;;4940678;29;20496;-70
2022/08/10 11:39:28;;;;;;;1.92;1.00;;;28.20;36.40;;;;;;4940658;29;20070;-70
2022/08/10 11:42:05;;;;;;;3.20;0.60;;;28.40;36.10;;;;;;4938101;28;20035;-70
2022/08/10 11:44:42;;;;;;;1.50;0.77;;;28.50;36.60;;;;;;4938571;28;20073;-70
2022/08/10 11:47:25;;;;;;;1.45;0.88;;;28.50;35.20;;;;;;4942405;29;20053;-70
2022/08/10 11:50:00;;;;;;;0.95;0.70;;;28.50;34.90;;;;;;4940009;29;20046;-70
2022/08/10 11:52:52;;;;;;;1.73;0.88;;;28.40;35.30;;;;;;4940959;29;20035;-70
2022/08/10 11:55:22;;;;;;;1.60;0.85;;;28.20;35.20;;;;;;4940345;28;20063;-70
2022/08/10 11:57:54;;;;;;;2.13;0.90;;;28.10;36.10;;;;;;4939522;28;20178;-70
2022/08/10 12:00:20;;;;;;;2.05;0.85;;;28.00;36.40;;;;;;4940178;29;20086;-70
2022/08/10 12:02:56;;;;;;;5.18;1.17;;;28.00;36.40;;;;;;4937804;29;20448;-70
2022/08/10 12:05:33;;;;;;;2.58;0.85;;;28.10;36.60;;;;;;4944399;28;20631;-70
2022/08/10 12:08:01;;;;;;;1.17;0.88;;;28.20;36.40;;;;;;4941921;29;20665;-70
2022/08/10 12:10:28;;;;;;;1.30;0.82;;;28.30;36.50;;;;;;4943044;29;20039;-70
2022/08/10 12:13:15;;;;;;;0.73;0.73;;;28.30;36.10;;;;;;4941976;28;20138;-70
2022/08/10 12:15:44;;;;;;;1.52;1.00;;;28.20;36.60;;;;;;4941343;29;20074;-70
2022/08/10 12:18:29;;;;;;;1.98;0.85;;;28.20;36.70;;;;;;4937568;29;20476;-70
2022/08/10 12:20:59;;;;;;;1.17;0.80;;;28.40;37.00;;;;;;4942465;29;20851;-70
2022/08/10 12:23:42;;;;;;;1.90;0.90;;;28.50;35.80;;;;;;4941155;28;20035;-70
2022/08/10 12:26:19;;;;;;;0.85;0.80;;;28.60;35.40;;;;;;4944266;28;20035;-70
2022/08/10 12:29:07;;;;;;;2.80;1.10;;;28.60;35.40;;;;;;4951260;28;20027;-70
2022/08/10 12:31:46;;;;;;;3.33;0.80;;;28.70;34.50;;;;;;4943982;29;20143;-70
2022/08/10 12:34:42;;;;;;;2.17;1.00;;;28.80;35.50;;;;;;4942513;28;20035;-70
2022/08/10 12:37:10;;;;;;;3.10;0.90;;;28.90;36.00;;;;;;4945815;29;20043;-70
2022/08/10 12:40:04;;;;;;;3.70;1.05;;;29.00;35.40;;;;;;4942967;29;20035;-70
2022/08/10 12:42:41;;;;;;;0.90;0.90;;;29.00;36.00;;;;;;4945007;28;20544;-70
2022/08/10 12:45:50;;;;;;;1.55;0.65;;;29.00;35.80;;;;;;4945315;28;20670;-70
2022/08/10 12:48:40;;;;;;;2.75;0.80;;;29.10;35.60;;;;;;4942943;29;20144;-70
2022/08/10 12:51:09;;;;;;;2.03;0.93;;;29.20;35.50;;;;;;4943692;29;20047;-70
2022/08/10 12:53:53;;;;;;;1.50;0.77;;;29.20;35.20;;;;;;4944212;28;20041;-70
2022/08/10 12:56:26;;;;;;;4.93;0.98;;;29.20;35.40;;;;;;4941860;29;20059;-70
2022/08/10 12:58:52;;;;;;;1.63;1.10;;;29.20;34.80;;;;;;4940417;28;20039;-70
2022/08/10 13:01:21;;;;;;;0.80;0.70;;;29.30;34.60;;;;;;4943375;29;20039;-70
2022/08/10 13:03:53;;;;;;;0.65;0.60;;;29.30;34.60;;;;;;4947851;28;20035;-70
2022/08/10 13:06:20;;;;;;;1.40;0.80;;;29.30;34.30;;;;;;4945576;29;20134;-70
2022/08/10 13:11:32;;;;;;;4.03;1.02;;;29.40;34.30;;;;;;4942694;29;20047;-70
2022/08/10 13:14:05;;;;;;;1.95;0.70;;;29.40;34.20;;;;;;4941455;28;20043;-70
2022/08/10 13:16:32;;;;;;;2.80;0.85;;;29.50;34.60;;;;;;4941506;29;20350;-70
2022/08/10 13:19:02;;;;;;;5.25;1.00;;;29.60;34.40;;;;;;4938159;28;20404;-70
2022/08/10 13:21:32;;;;;;;1.35;0.90;;;29.60;33.60;;;;;;4947568;29;20041;-70
2022/08/10 13:24:05;;;;;;;1.95;1.08;;;29.40;34.10;;;;;;4943812;28;20041;-70
2022/08/10 13:26:36;;;;;;;1.75;0.80;;;29.50;34.60;;;;;;4943239;29;20034;-70
2022/08/10 13:29:03;;;;;;;1.25;0.77;;;29.60;33.80;;;;;;4943113;29;20078;-70